Ofertas de vuelos a Natal

Encontranos en
En el mes de
SalidaRegresoDíasConexionesDisponibilidadDisp.
26/01/20212021-01-2605/02/20212021-02-0510ConexionesVer disponibilidad>01https://an.despegar.com/ad/1040?q=shop%2Fflights%2Fresults%2Froundtrip%2FBUE%2FNAT%2F2021-01-26%2F2021-02-05%2F1%2F0%2F0
08/03/20212021-03-0815/03/20212021-03-157ConexionesVer disponibilidad>03https://an.despegar.com/ad/1040?q=shop%2Fflights%2Fresults%2Froundtrip%2FBUE%2FNAT%2F2021-03-08%2F2021-03-15%2F1%2F0%2F0
14/03/20212021-03-1427/03/20212021-03-2713ConexionesVer disponibilidad>03https://an.despegar.com/ad/1040?q=shop%2Fflights%2Fresults%2Froundtrip%2FBUE%2FNAT%2F2021-03-14%2F2021-03-27%2F1%2F0%2F0
12/04/20212021-04-1220/04/20212021-04-208ConexionesVer disponibilidad>04https://an.despegar.com/ad/1040?q=shop%2Fflights%2Fresults%2Froundtrip%2FBUE%2FNAT%2F2021-04-12%2F2021-04-20%2F1%2F0%2F0
16/04/20212021-04-1626/04/20212021-04-2610ConexionesVer disponibilidad>04https://an.despegar.com/ad/1040?q=shop%2Fflights%2Fresults%2Froundtrip%2FBUE%2FNAT%2F2021-04-16%2F2021-04-26%2F1%2F0%2F0
17/04/20212021-04-1727/04/20212021-04-2710ConexionesVer disponibilidad>04https://an.despegar.com/ad/1040?q=shop%2Fflights%2Fresults%2Froundtrip%2FBUE%2FNAT%2F2021-04-17%2F2021-04-27%2F1%2F0%2F0
18/04/20212021-04-1802/05/20212021-05-0214ConexionesVer disponibilidad>04https://an.despegar.com/ad/1040?q=shop%2Fflights%2Fresults%2Froundtrip%2FBUE%2FNAT%2F2021-04-18%2F2021-05-02%2F1%2F0%2F0
01/05/20212021-05-0108/05/20212021-05-087ConexionesVer disponibilidad>05https://an.despegar.com/ad/1040?q=shop%2Fflights%2Fresults%2Froundtrip%2FBUE%2FNAT%2F2021-05-01%2F2021-05-08%2F1%2F0%2F0
02/05/20212021-05-0212/05/20212021-05-1210ConexionesVer disponibilidad>05https://an.despegar.com/ad/1040?q=shop%2Fflights%2Fresults%2Froundtrip%2FBUE%2FNAT%2F2021-05-02%2F2021-05-12%2F1%2F0%2F0
03/05/20212021-05-0313/05/20212021-05-1310ConexionesVer disponibilidad>05https://an.despegar.com/ad/1040?q=shop%2Fflights%2Fresults%2Froundtrip%2FBUE%2FNAT%2F2021-05-03%2F2021-05-13%2F1%2F0%2F0
18/05/20212021-05-1828/05/20212021-05-2810ConexionesVer disponibilidad>05https://an.despegar.com/ad/1040?q=shop%2Fflights%2Fresults%2Froundtrip%2FBUE%2FNAT%2F2021-05-18%2F2021-05-28%2F1%2F0%2F0
19/05/20212021-05-1929/05/20212021-05-2910ConexionesVer disponibilidad>05https://an.despegar.com/ad/1040?q=shop%2Fflights%2Fresults%2Froundtrip%2FBUE%2FNAT%2F2021-05-19%2F2021-05-29%2F1%2F0%2F0
03/06/20212021-06-0313/06/20212021-06-1310ConexionesVer disponibilidad>06https://an.despegar.com/ad/1040?q=shop%2Fflights%2Fresults%2Froundtrip%2FBUE%2FNAT%2F2021-06-03%2F2021-06-13%2F1%2F0%2F0
04/06/20212021-06-0414/06/20212021-06-1410ConexionesVer disponibilidad>06https://an.despegar.com/ad/1040?q=shop%2Fflights%2Fresults%2Froundtrip%2FBUE%2FNAT%2F2021-06-04%2F2021-06-14%2F1%2F0%2F0
06/06/20212021-06-0604/07/20212021-07-0428ConexionesVer disponibilidad>06https://an.despegar.com/ad/1040?q=shop%2Fflights%2Fresults%2Froundtrip%2FBUE%2FNAT%2F2021-06-06%2F2021-07-04%2F1%2F0%2F0
19/06/20212021-06-1929/06/20212021-06-2910ConexionesVer disponibilidad>06https://an.despegar.com/ad/1040?q=shop%2Fflights%2Fresults%2Froundtrip%2FBUE%2FNAT%2F2021-06-19%2F2021-06-29%2F1%2F0%2F0
20/06/20212021-06-2030/06/20212021-06-3010ConexionesVer disponibilidad>06https://an.despegar.com/ad/1040?q=shop%2Fflights%2Fresults%2Froundtrip%2FBUE%2FNAT%2F2021-06-20%2F2021-06-30%2F1%2F0%2F0
05/07/20212021-07-0515/07/20212021-07-1510ConexionesVer disponibilidad>07https://an.despegar.com/ad/1040?q=shop%2Fflights%2Fresults%2Froundtrip%2FBUE%2FNAT%2F2021-07-05%2F2021-07-15%2F1%2F0%2F0
06/07/20212021-07-0616/07/20212021-07-1610ConexionesVer disponibilidad>07https://an.despegar.com/ad/1040?q=shop%2Fflights%2Fresults%2Froundtrip%2FBUE%2FNAT%2F2021-07-06%2F2021-07-16%2F1%2F0%2F0
14/07/20212021-07-1423/07/20212021-07-239ConexionesVer disponibilidad>07https://an.despegar.com/ad/1040?q=shop%2Fflights%2Fresults%2Froundtrip%2FBUE%2FNAT%2F2021-07-14%2F2021-07-23%2F1%2F0%2F0
24/07/20212021-07-2408/08/20212021-08-0815ConexionesVer disponibilidad>07https://an.despegar.com/ad/1040?q=shop%2Fflights%2Fresults%2Froundtrip%2FBUE%2FNAT%2F2021-07-24%2F2021-08-08%2F1%2F0%2F0
01/09/20212021-09-0115/09/20212021-09-1514ConexionesVer disponibilidad>09https://an.despegar.com/ad/1040?q=shop%2Fflights%2Fresults%2Froundtrip%2FBUE%2FNAT%2F2021-09-01%2F2021-09-15%2F1%2F0%2F0
01/09/20212021-09-0109/09/20212021-09-098ConexionesVer disponibilidad>09https://an.despegar.com/ad/1040?q=shop%2Fflights%2Fresults%2Froundtrip%2FBUE%2FNAT%2F2021-09-01%2F2021-09-09%2F1%2F0%2F0
04/09/20212021-09-0411/09/20212021-09-117ConexionesVer disponibilidad>09https://an.despegar.com/ad/1040?q=shop%2Fflights%2Fresults%2Froundtrip%2FBUE%2FNAT%2F2021-09-04%2F2021-09-11%2F1%2F0%2F0

Es posible que la disponibilidad de vuelos hacia este destino se vea afectada debido al COVID-19. Si es tu caso, te invitamos a realizar una nueva búsqueda a través de este link.

Asistencia al viajero

Cotiza tu ASSIST CARD

Origen
Destino

Información general sobre Natal

Natal, que en español significa Navidad, es una ciudad brasileña localizada en el estado de Rio Grande do Norte. Atravesada por el río Potengi, la capital nordestina cuenta con playas, dunas y diferentes atracciones históricas. Anualmente recibe a dos millones de turistas y es la puerta de entrada hacia otros importantes destinos del estado.

Pasajes Aéreos y Vuelos Baratos a Natal

Descargá gratis nuestra nueva app para Android y iOS.
Suscribite a las notificaciones de Chrome y Safari.
Seguinos en Facebook, Twitter e Instagram
Suscribite a nuestro newsletter aquí.